sensor_id;sensor_type;location;lat;lon;timestamp;P1;durP1;ratioP1;P2;durP2;ratioP2
55268;SDS011;41131;42.990;21.954;2023-03-07T00:02:11;74.88;;;52.78;;
55268;SDS011;41131;42.990;21.954;2023-03-07T00:04:37;61.47;;;42.08;;
55268;SDS011;41131;42.990;21.954;2023-03-07T00:07:03;55.00;;;37.20;;
55268;SDS011;41131;42.990;21.954;2023-03-07T00:09:29;52.72;;;36.42;;
55268;SDS011;41131;42.990;21.954;2023-03-07T00:11:55;55.38;;;36.75;;
55268;SDS011;41131;42.990;21.954;2023-03-07T00:14:21;51.47;;;34.75;;
55268;SDS011;41131;42.990;21.954;2023-03-07T00:16:50;57.10;;;38.13;;
55268;SDS011;41131;42.990;21.954;2023-03-07T00:19:16;46.97;;;30.48;;
55268;SDS011;41131;42.990;21.954;2023-03-07T00:21:43;49.55;;;34.55;;
55268;SDS011;41131;42.990;21.954;2023-03-07T00:24:09;53.15;;;36.45;;
55268;SDS011;41131;42.990;21.954;2023-03-07T00:26:35;47.42;;;30.73;;
55268;SDS011;41131;42.990;21.954;2023-03-07T00:29:04;45.72;;;33.28;;
55268;SDS011;41131;42.990;21.954;2023-03-07T00:31:31;47.85;;;35.47;;
55268;SDS011;41131;42.990;21.954;2023-03-07T00:33:57;45.03;;;31.25;;
55268;SDS011;41131;42.990;21.954;2023-03-07T00:36:24;42.45;;;28.70;;
55268;SDS011;41131;42.990;21.954;2023-03-07T00:38:50;53.35;;;34.85;;
55268;SDS011;41131;42.990;21.954;2023-03-07T00:41:18;49.00;;;34.38;;
55268;SDS011;41131;42.990;21.954;2023-03-07T00:43:44;42.38;;;28.95;;
55268;SDS011;41131;42.990;21.954;2023-03-07T00:46:11;46.25;;;31.85;;
55268;SDS011;41131;42.990;21.954;2023-03-07T00:48:38;47.78;;;31.80;;
55268;SDS011;41131;42.990;21.954;2023-03-07T00:51:05;42.92;;;29.77;;
55268;SDS011;41131;42.990;21.954;2023-03-07T00:53:31;42.03;;;29.05;;
55268;SDS011;41131;42.990;21.954;2023-03-07T00:55:58;40.45;;;27.83;;
55268;SDS011;41131;42.990;21.954;2023-03-07T00:58:26;45.88;;;31.08;;
55268;SDS011;41131;42.990;21.954;2023-03-07T01:00:52;51.78;;;33.70;;
55268;SDS011;41131;42.990;21.954;2023-03-07T01:03:18;49.72;;;33.05;;
55268;SDS011;41131;42.990;21.954;2023-03-07T01:05:44;50.88;;;33.85;;
55268;SDS011;41131;42.990;21.954;2023-03-07T01:08:11;49.47;;;34.75;;
55268;SDS011;41131;42.990;21.954;2023-03-07T01:10:37;55.20;;;37.35;;
55268;SDS011;41131;42.990;21.954;2023-03-07T01:13:03;50.50;;;37.92;;
55268;SDS011;41131;42.990;21.954;2023-03-07T01:15:29;73.57;;;48.03;;
55268;SDS011;41131;42.990;21.954;2023-03-07T01:17:56;48.53;;;35.35;;
55268;SDS011;41131;42.990;21.954;2023-03-07T01:20:22;56.67;;;39.92;;
55268;SDS011;41131;42.990;21.954;2023-03-07T01:22:49;58.72;;;35.95;;
55268;SDS011;41131;42.990;21.954;2023-03-07T01:25:15;53.85;;;34.47;;
55268;SDS011;41131;42.990;21.954;2023-03-07T01:27:41;47.53;;;31.42;;
55268;SDS011;41131;42.990;21.954;2023-03-07T01:30:07;45.00;;;31.65;;
55268;SDS011;41131;42.990;21.954;2023-03-07T01:32:35;44.90;;;31.95;;
55268;SDS011;41131;42.990;21.954;2023-03-07T01:35:01;42.78;;;30.60;;
55268;SDS011;41131;42.990;21.954;2023-03-07T01:37:27;42.63;;;31.52;;
55268;SDS011;41131;42.990;21.954;2023-03-07T01:39:53;44.95;;;30.45;;
55268;SDS011;41131;42.990;21.954;2023-03-07T01:42:19;40.92;;;29.90;;
55268;SDS011;41131;42.990;21.954;2023-03-07T01:47:31;32.33;;;25.17;;
55268;SDS011;41131;42.990;21.954;2023-03-07T01:49:58;41.35;;;30.58;;
55268;SDS011;41131;42.990;21.954;2023-03-07T01:52:29;54.65;;;37.75;;
55268;SDS011;41131;42.990;21.954;2023-03-07T01:55:00;54.33;;;37.78;;
55268;SDS011;41131;42.990;21.954;2023-03-07T01:57:30;49.22;;;36.17;;
55268;SDS011;41131;42.990;21.954;2023-03-07T01:59:58;56.88;;;37.20;;
55268;SDS011;41131;42.990;21.954;2023-03-07T02:02:24;54.83;;;37.35;;
55268;SDS011;41131;42.990;21.954;2023-03-07T02:04:56;51.67;;;38.25;;
55268;SDS011;41131;42.990;21.954;2023-03-07T02:07:24;51.65;;;37.90;;
55268;SDS011;41131;42.990;21.954;2023-03-07T02:09:52;51.67;;;37.55;;
55268;SDS011;41131;42.990;21.954;2023-03-07T02:12:18;51.20;;;38.90;;
55268;SDS011;41131;42.990;21.954;2023-03-07T02:14:45;51.72;;;36.20;;
55268;SDS011;41131;42.990;21.954;2023-03-07T02:17:12;44.58;;;32.05;;
55268;SDS011;41131;42.990;21.954;2023-03-07T02:19:58;46.42;;;33.17;;
55268;SDS011;41131;42.990;21.954;2023-03-07T02:22:29;43.33;;;32.92;;
55268;SDS011;41131;42.990;21.954;2023-03-07T02:25:00;48.38;;;32.92;;
55268;SDS011;41131;42.990;21.954;2023-03-07T02:27:28;52.20;;;34.88;;
55268;SDS011;41131;42.990;21.954;2023-03-07T02:29:55;50.72;;;34.78;;
55268;SDS011;41131;42.990;21.954;2023-03-07T02:32:21;46.08;;;34.38;;
55268;SDS011;41131;42.990;21.954;2023-03-07T02:34:47;52.55;;;34.65;;
55268;SDS011;41131;42.990;21.954;2023-03-07T02:37:20;47.95;;;33.97;;
55268;SDS011;41131;42.990;21.954;2023-03-07T02:39:47;48.05;;;36.40;;
55268;SDS011;41131;42.990;21.954;2023-03-07T02:42:16;54.78;;;37.67;;
55268;SDS011;41131;42.990;21.954;2023-03-07T02:44:44;57.50;;;37.67;;
55268;SDS011;41131;42.990;21.954;2023-03-07T02:47:10;53.45;;;37.17;;
55268;SDS011;41131;42.990;21.954;2023-03-07T02:49:36;55.00;;;38.55;;
55268;SDS011;41131;42.990;21.954;2023-03-07T02:52:02;76.03;;;53.22;;
55268;SDS011;41131;42.990;21.954;2023-03-07T02:54:28;143.27;;;86.13;;
55268;SDS011;41131;42.990;21.954;2023-03-07T02:56:54;111.82;;;70.00;;
55268;SDS011;41131;42.990;21.954;2023-03-07T02:59:20;50.50;;;33.15;;
55268;SDS011;41131;42.990;21.954;2023-03-07T03:01:46;41.10;;;27.17;;
55268;SDS011;41131;42.990;21.954;2023-03-07T03:04:12;38.20;;;24.85;;
55268;SDS011;41131;42.990;21.954;2023-03-07T03:06:40;43.05;;;26.38;;
55268;SDS011;41131;42.990;21.954;2023-03-07T03:09:06;36.17;;;23.77;;
55268;SDS011;41131;42.990;21.954;2023-03-07T03:11:32;32.75;;;20.83;;
55268;SDS011;41131;42.990;21.954;2023-03-07T03:13:58;30.63;;;20.58;;
55268;SDS011;41131;42.990;21.954;2023-03-07T03:16:24;35.13;;;22.30;;
55268;SDS011;41131;42.990;21.954;2023-03-07T03:18:50;38.67;;;25.35;;
55268;SDS011;41131;42.990;21.954;2023-03-07T03:21:16;34.88;;;24.08;;
55268;SDS011;41131;42.990;21.954;2023-03-07T03:23:42;47.00;;;28.98;;
55268;SDS011;41131;42.990;21.954;2023-03-07T03:26:08;50.00;;;31.73;;
55268;SDS011;41131;42.990;21.954;2023-03-07T03:28:36;26.17;;;19.83;;
55268;SDS011;41131;42.990;21.954;2023-03-07T03:31:03;27.48;;;19.15;;
55268;SDS011;41131;42.990;21.954;2023-03-07T03:33:30;31.45;;;23.88;;
55268;SDS011;41131;42.990;21.954;2023-03-07T03:35:56;30.85;;;23.65;;
55268;SDS011;41131;42.990;21.954;2023-03-07T03:38:22;28.30;;;19.30;;
55268;SDS011;41131;42.990;21.954;2023-03-07T03:40:49;25.45;;;17.55;;
55268;SDS011;41131;42.990;21.954;2023-03-07T03:43:16;24.85;;;17.63;;
55268;SDS011;41131;42.990;21.954;2023-03-07T03:45:42;29.42;;;18.42;;
55268;SDS011;41131;42.990;21.954;2023-03-07T03:48:08;25.27;;;19.77;;
55268;SDS011;41131;42.990;21.954;2023-03-07T03:50:34;23.83;;;17.35;;
55268;SDS011;41131;42.990;21.954;2023-03-07T03:53:02;25.45;;;17.35;;
55268;SDS011;41131;42.990;21.954;2023-03-07T03:55:28;24.95;;;17.80;;
55268;SDS011;41131;42.990;21.954;2023-03-07T03:57:54;22.92;;;16.50;;
55268;SDS011;41131;42.990;21.954;2023-03-07T04:00:20;23.27;;;15.50;;
55268;SDS011;41131;42.990;21.954;2023-03-07T04:02:47;18.95;;;13.32;;
55268;SDS011;41131;42.990;21.954;2023-03-07T04:05:13;21.30;;;14.20;;
55268;SDS011;41131;42.990;21.954;2023-03-07T04:07:40;16.92;;;12.93;;
55268;SDS011;41131;42.990;21.954;2023-03-07T04:10:06;21.33;;;15.02;;
55268;SDS011;41131;42.990;21.954;2023-03-07T04:12:32;20.33;;;14.40;;
55268;SDS011;41131;42.990;21.954;2023-03-07T04:14:58;18.80;;;14.18;;
55268;SDS011;41131;42.990;21.954;2023-03-07T04:17:24;20.98;;;12.88;;
55268;SDS011;41131;42.990;21.954;2023-03-07T04:19:50;21.10;;;13.77;;
55268;SDS011;41131;42.990;21.954;2023-03-07T04:22:17;20.13;;;15.15;;
55268;SDS011;41131;42.990;21.954;2023-03-07T04:24:43;19.80;;;13.77;;
55268;SDS011;41131;42.990;21.954;2023-03-07T04:27:09;21.95;;;13.98;;
55268;SDS011;41131;42.990;21.954;2023-03-07T04:29:35;20.75;;;14.95;;
55268;SDS011;41131;42.990;21.954;2023-03-07T04:32:02;23.52;;;14.52;;
55268;SDS011;41131;42.990;21.954;2023-03-07T04:34:28;20.85;;;14.98;;
55268;SDS011;41131;42.990;21.954;2023-03-07T04:36:54;28.13;;;20.90;;
55268;SDS011;41131;42.990;21.954;2023-03-07T04:39:20;25.02;;;17.13;;
55268;SDS011;41131;42.990;21.954;2023-03-07T04:41:46;24.17;;;17.27;;
55268;SDS011;41131;42.990;21.954;2023-03-07T04:44:12;23.80;;;17.17;;
55268;SDS011;41131;42.990;21.954;2023-03-07T04:46:40;24.95;;;16.67;;
55268;SDS011;41131;42.990;21.954;2023-03-07T04:49:06;22.40;;;15.65;;
55268;SDS011;41131;42.990;21.954;2023-03-07T04:51:32;24.70;;;15.98;;
55268;SDS011;41131;42.990;21.954;2023-03-07T04:53:58;28.00;;;15.70;;
55268;SDS011;41131;42.990;21.954;2023-03-07T04:56:24;22.73;;;16.58;;
55268;SDS011;41131;42.990;21.954;2023-03-07T04:58:50;31.52;;;19.10;;
55268;SDS011;41131;42.990;21.954;2023-03-07T05:01:17;28.85;;;20.60;;
55268;SDS011;41131;42.990;21.954;2023-03-07T05:03:43;34.92;;;25.10;;
55268;SDS011;41131;42.990;21.954;2023-03-07T05:06:11;35.25;;;26.05;;
55268;SDS011;41131;42.990;21.954;2023-03-07T05:08:38;41.42;;;29.98;;
55268;SDS011;41131;42.990;21.954;2023-03-07T05:11:04;46.58;;;33.83;;
55268;SDS011;41131;42.990;21.954;2023-03-07T05:13:30;49.72;;;38.05;;
55268;SDS011;41131;42.990;21.954;2023-03-07T05:15:57;43.28;;;31.50;;
55268;SDS011;41131;42.990;21.954;2023-03-07T05:18:23;38.10;;;27.80;;
55268;SDS011;41131;42.990;21.954;2023-03-07T05:20:50;35.85;;;27.58;;
55268;SDS011;41131;42.990;21.954;2023-03-07T05:23:16;37.97;;;27.70;;
55268;SDS011;41131;42.990;21.954;2023-03-07T05:25:42;36.15;;;23.75;;
55268;SDS011;41131;42.990;21.954;2023-03-07T05:28:08;31.30;;;22.70;;
55268;SDS011;41131;42.990;21.954;2023-03-07T05:30:35;51.28;;;36.92;;
55268;SDS011;41131;42.990;21.954;2023-03-07T05:33:01;55.92;;;40.40;;
55268;SDS011;41131;42.990;21.954;2023-03-07T05:35:27;58.30;;;42.65;;
55268;SDS011;41131;42.990;21.954;2023-03-07T05:37:53;51.88;;;35.35;;
55268;SDS011;41131;42.990;21.954;2023-03-07T05:40:19;48.70;;;31.83;;
55268;SDS011;41131;42.990;21.954;2023-03-07T05:42:45;49.35;;;34.50;;
55268;SDS011;41131;42.990;21.954;2023-03-07T05:45:11;61.25;;;41.10;;
55268;SDS011;41131;42.990;21.954;2023-03-07T05:47:37;59.67;;;41.50;;
55268;SDS011;41131;42.990;21.954;2023-03-07T05:50:04;55.67;;;39.88;;
55268;SDS011;41131;42.990;21.954;2023-03-07T05:52:30;58.45;;;39.15;;
55268;SDS011;41131;42.990;21.954;2023-03-07T05:54:56;64.93;;;48.63;;
55268;SDS011;41131;42.990;21.954;2023-03-07T05:57:22;62.75;;;46.30;;
55268;SDS011;41131;42.990;21.954;2023-03-07T05:59:48;61.22;;;40.95;;
55268;SDS011;41131;42.990;21.954;2023-03-07T06:02:14;66.88;;;47.03;;
55268;SDS011;41131;42.990;21.954;2023-03-07T06:04:41;70.78;;;48.80;;
55268;SDS011;41131;42.990;21.954;2023-03-07T06:07:07;70.50;;;50.35;;
55268;SDS011;41131;42.990;21.954;2023-03-07T06:09:33;77.82;;;53.42;;
55268;SDS011;41131;42.990;21.954;2023-03-07T06:11:59;65.55;;;44.65;;
55268;SDS011;41131;42.990;21.954;2023-03-07T06:14:25;72.45;;;47.10;;
55268;SDS011;41131;42.990;21.954;2023-03-07T06:16:51;82.97;;;53.25;;
55268;SDS011;41131;42.990;21.954;2023-03-07T06:19:17;57.80;;;38.10;;
55268;SDS011;41131;42.990;21.954;2023-03-07T06:21:43;43.50;;;29.90;;
55268;SDS011;41131;42.990;21.954;2023-03-07T06:24:09;42.33;;;29.52;;
55268;SDS011;41131;42.990;21.954;2023-03-07T06:26:35;57.47;;;39.10;;
55268;SDS011;41131;42.990;21.954;2023-03-07T06:29:01;40.53;;;30.20;;
55268;SDS011;41131;42.990;21.954;2023-03-07T06:31:27;45.30;;;34.10;;
55268;SDS011;41131;42.990;21.954;2023-03-07T06:33:53;48.25;;;35.08;;
55268;SDS011;41131;42.990;21.954;2023-03-07T06:36:20;43.97;;;30.38;;
55268;SDS011;41131;42.990;21.954;2023-03-07T06:38:46;39.15;;;27.98;;
55268;SDS011;41131;42.990;21.954;2023-03-07T06:41:12;36.55;;;25.88;;
55268;SDS011;41131;42.990;21.954;2023-03-07T06:43:38;52.28;;;35.10;;
55268;SDS011;41131;42.990;21.954;2023-03-07T06:46:05;49.53;;;36.08;;
55268;SDS011;41131;42.990;21.954;2023-03-07T06:48:31;53.60;;;37.83;;
55268;SDS011;41131;42.990;21.954;2023-03-07T06:50:58;58.10;;;41.63;;
55268;SDS011;41131;42.990;21.954;2023-03-07T06:53:24;102.93;;;55.67;;
55268;SDS011;41131;42.990;21.954;2023-03-07T06:55:51;126.65;;;69.13;;
55268;SDS011;41131;42.990;21.954;2023-03-07T06:58:17;51.00;;;36.38;;
55268;SDS011;41131;42.990;21.954;2023-03-07T07:00:43;39.15;;;27.83;;
55268;SDS011;41131;42.990;21.954;2023-03-07T07:03:12;40.83;;;29.55;;
55268;SDS011;41131;42.990;21.954;2023-03-07T07:05:39;118.18;;;84.38;;
55268;SDS011;41131;42.990;21.954;2023-03-07T07:08:05;56.72;;;42.50;;
55268;SDS011;41131;42.990;21.954;2023-03-07T07:10:31;91.20;;;66.15;;
55268;SDS011;41131;42.990;21.954;2023-03-07T07:12:57;125.43;;;97.90;;
55268;SDS011;41131;42.990;21.954;2023-03-07T07:15:23;76.95;;;60.45;;
55268;SDS011;41131;42.990;21.954;2023-03-07T07:17:50;78.10;;;59.63;;
55268;SDS011;41131;42.990;21.954;2023-03-07T07:20:16;106.80;;;74.10;;
55268;SDS011;41131;42.990;21.954;2023-03-07T07:22:42;83.43;;;62.15;;
55268;SDS011;41131;42.990;21.954;2023-03-07T07:25:09;56.33;;;41.92;;
55268;SDS011;41131;42.990;21.954;2023-03-07T07:27:35;51.85;;;37.25;;
55268;SDS011;41131;42.990;21.954;2023-03-07T07:30:01;48.63;;;36.65;;
55268;SDS011;41131;42.990;21.954;2023-03-07T07:32:27;57.35;;;41.90;;
55268;SDS011;41131;42.990;21.954;2023-03-07T07:34:54;46.92;;;37.78;;
55268;SDS011;41131;42.990;21.954;2023-03-07T07:37:20;51.70;;;40.63;;
55268;SDS011;41131;42.990;21.954;2023-03-07T07:39:47;80.43;;;56.20;;
55268;SDS011;41131;42.990;21.954;2023-03-07T07:42:14;87.88;;;63.55;;
55268;SDS011;41131;42.990;21.954;2023-03-07T07:44:40;79.13;;;61.92;;
55268;SDS011;41131;42.990;21.954;2023-03-07T07:47:06;68.80;;;54.35;;
55268;SDS011;41131;42.990;21.954;2023-03-07T07:49:32;64.38;;;50.13;;
55268;SDS011;41131;42.990;21.954;2023-03-07T07:51:59;112.32;;;77.55;;
55268;SDS011;41131;42.990;21.954;2023-03-07T07:54:25;78.50;;;56.97;;
55268;SDS011;41131;42.990;21.954;2023-03-07T07:56:52;65.90;;;50.08;;
55268;SDS011;41131;42.990;21.954;2023-03-07T07:59:18;64.55;;;50.05;;
55268;SDS011;41131;42.990;21.954;2023-03-07T08:01:44;81.35;;;64.32;;
55268;SDS011;41131;42.990;21.954;2023-03-07T08:04:10;59.80;;;45.63;;
55268;SDS011;41131;42.990;21.954;2023-03-07T08:06:36;67.75;;;45.90;;
55268;SDS011;41131;42.990;21.954;2023-03-07T08:09:03;67.82;;;51.08;;
55268;SDS011;41131;42.990;21.954;2023-03-07T08:11:30;57.75;;;45.17;;
55268;SDS011;41131;42.990;21.954;2023-03-07T08:13:56;82.82;;;40.05;;
55268;SDS011;41131;42.990;21.954;2023-03-07T08:16:22;67.00;;;46.42;;
55268;SDS011;41131;42.990;21.954;2023-03-07T08:18:49;98.60;;;40.38;;
55268;SDS011;41131;42.990;21.954;2023-03-07T08:21:16;70.63;;;40.13;;
55268;SDS011;41131;42.990;21.954;2023-03-07T08:23:42;46.15;;;29.33;;
55268;SDS011;41131;42.990;21.954;2023-03-07T08:26:09;65.97;;;30.38;;
55268;SDS011;41131;42.990;21.954;2023-03-07T08:28:37;69.40;;;33.55;;
55268;SDS011;41131;42.990;21.954;2023-03-07T08:31:16;68.18;;;32.95;;
55268;SDS011;41131;42.990;21.954;2023-03-07T08:33:44;62.85;;;31.27;;
55268;SDS011;41131;42.990;21.954;2023-03-07T08:36:10;43.42;;;26.02;;
55268;SDS011;41131;42.990;21.954;2023-03-07T08:38:36;50.20;;;20.17;;
55268;SDS011;41131;42.990;21.954;2023-03-07T08:41:03;45.53;;;32.13;;
55268;SDS011;41131;42.990;21.954;2023-03-07T08:43:31;42.17;;;30.17;;
55268;SDS011;41131;42.990;21.954;2023-03-07T08:45:57;52.53;;;29.77;;
55268;SDS011;41131;42.990;21.954;2023-03-07T08:48:24;49.33;;;25.70;;
55268;SDS011;41131;42.990;21.954;2023-03-07T08:50:51;83.30;;;30.10;;
55268;SDS011;41131;42.990;21.954;2023-03-07T08:53:18;50.70;;;31.90;;
55268;SDS011;41131;42.990;21.954;2023-03-07T08:55:44;44.05;;;26.25;;
55268;SDS011;41131;42.990;21.954;2023-03-07T08:58:10;31.60;;;22.60;;
55268;SDS011;41131;42.990;21.954;2023-03-07T09:00:37;46.33;;;29.88;;
55268;SDS011;41131;42.990;21.954;2023-03-07T09:03:03;53.22;;;26.50;;
55268;SDS011;41131;42.990;21.954;2023-03-07T09:05:29;57.65;;;29.98;;
55268;SDS011;41131;42.990;21.954;2023-03-07T09:07:55;83.20;;;25.45;;
55268;SDS011;41131;42.990;21.954;2023-03-07T09:10:23;50.53;;;20.65;;
55268;SDS011;41131;42.990;21.954;2023-03-07T09:12:51;26.55;;;14.80;;
55268;SDS011;41131;42.990;21.954;2023-03-07T09:15:19;97.75;;;64.20;;
55268;SDS011;41131;42.990;21.954;2023-03-07T09:17:45;23.85;;;15.90;;
55268;SDS011;41131;42.990;21.954;2023-03-07T09:20:11;27.55;;;16.42;;
55268;SDS011;41131;42.990;21.954;2023-03-07T09:22:38;23.73;;;15.75;;
55268;SDS011;41131;42.990;21.954;2023-03-07T09:25:04;50.67;;;19.13;;
55268;SDS011;41131;42.990;21.954;2023-03-07T09:27:30;19.25;;;14.30;;
55268;SDS011;41131;42.990;21.954;2023-03-07T09:29:56;41.90;;;29.90;;
55268;SDS011;41131;42.990;21.954;2023-03-07T09:32:22;19.17;;;10.00;;
55268;SDS011;41131;42.990;21.954;2023-03-07T09:34:48;26.52;;;19.85;;
55268;SDS011;41131;42.990;21.954;2023-03-07T09:37:14;26.67;;;19.13;;
55268;SDS011;41131;42.990;21.954;2023-03-07T09:39:41;16.67;;;12.07;;
55268;SDS011;41131;42.990;21.954;2023-03-07T09:49:56;19.30;;;12.63;;
55268;SDS011;41131;42.990;21.954;2023-03-07T09:52:24;19.17;;;11.73;;
55268;SDS011;41131;42.990;21.954;2023-03-07T09:54:54;16.50;;;8.35;;
55268;SDS011;41131;42.990;21.954;2023-03-07T09:57:22;17.60;;;6.22;;
55268;SDS011;41131;42.990;21.954;2023-03-07T09:59:50;23.02;;;9.30;;
55268;SDS011;41131;42.990;21.954;2023-03-07T10:05:10;23.75;;;10.90;;
55268;SDS011;41131;42.990;21.954;2023-03-07T10:07:40;30.25;;;16.60;;
55268;SDS011;41131;42.990;21.954;2023-03-07T10:10:31;24.65;;;12.68;;
55268;SDS011;41131;42.990;21.954;2023-03-07T10:18:23;16.63;;;10.90;;
55268;SDS011;41131;42.990;21.954;2023-03-07T10:25:49;27.65;;;18.00;;
55268;SDS011;41131;42.990;21.954;2023-03-07T10:30:42;21.67;;;12.38;;
55268;SDS011;41131;42.990;21.954;2023-03-07T10:33:11;25.60;;;16.40;;
55268;SDS011;41131;42.990;21.954;2023-03-07T10:35:41;39.95;;;23.05;;
55268;SDS011;41131;42.990;21.954;2023-03-07T10:40:49;33.58;;;17.10;;
55268;SDS011;41131;42.990;21.954;2023-03-07T10:43:22;34.58;;;14.65;;
55268;SDS011;41131;42.990;21.954;2023-03-07T10:45:51;49.83;;;29.88;;
55268;SDS011;41131;42.990;21.954;2023-03-07T10:48:18;14.80;;;9.15;;
55268;SDS011;41131;42.990;21.954;2023-03-07T10:50:51;14.88;;;9.07;;
55268;SDS011;41131;42.990;21.954;2023-03-07T10:53:21;17.48;;;10.80;;
55268;SDS011;41131;42.990;21.954;2023-03-07T10:55:47;16.30;;;9.35;;
55268;SDS011;41131;42.990;21.954;2023-03-07T10:58:16;11.65;;;7.70;;
55268;SDS011;41131;42.990;21.954;2023-03-07T11:00:44;26.95;;;15.02;;
55268;SDS011;41131;42.990;21.954;2023-03-07T11:03:21;13.50;;;8.75;;
55268;SDS011;41131;42.990;21.954;2023-03-07T11:05:47;14.90;;;8.25;;
55268;SDS011;41131;42.990;21.954;2023-03-07T11:08:26;13.35;;;9.10;;
55268;SDS011;41131;42.990;21.954;2023-03-07T11:10:53;20.70;;;10.48;;
55268;SDS011;41131;42.990;21.954;2023-03-07T11:13:19;10.85;;;7.60;;
55268;SDS011;41131;42.990;21.954;2023-03-07T11:15:46;18.70;;;7.32;;
55268;SDS011;41131;42.990;21.954;2023-03-07T11:18:24;9.65;;;6.60;;
55268;SDS011;41131;42.990;21.954;2023-03-07T11:20:50;11.00;;;5.95;;
55268;SDS011;41131;42.990;21.954;2023-03-07T11:23:20;13.20;;;8.15;;
55268;SDS011;41131;42.990;21.954;2023-03-07T11:25:55;17.58;;;9.73;;
55268;SDS011;41131;42.990;21.954;2023-03-07T11:28:31;29.40;;;8.25;;
55268;SDS011;41131;42.990;21.954;2023-03-07T11:36:21;25.90;;;7.63;;
55268;SDS011;41131;42.990;21.954;2023-03-07T11:43:57;20.73;;;6.88;;
55268;SDS011;41131;42.990;21.954;2023-03-07T11:49:12;14.15;;;9.27;;
55268;SDS011;41131;42.990;21.954;2023-03-07T11:56:39;12.52;;;9.00;;
55268;SDS011;41131;42.990;21.954;2023-03-07T11:59:35;17.88;;;10.27;;
55268;SDS011;41131;42.990;21.954;2023-03-07T12:02:03;16.80;;;8.52;;
55268;SDS011;41131;42.990;21.954;2023-03-07T12:27:37;26.30;;;18.58;;
55268;SDS011;41131;42.990;21.954;2023-03-07T12:30:24;16.80;;;11.18;;
55268;SDS011;41131;42.990;21.954;2023-03-07T12:32:51;9.02;;;5.55;;
55268;SDS011;41131;42.990;21.954;2023-03-07T12:35:22;8.15;;;5.18;;
55268;SDS011;41131;42.990;21.954;2023-03-07T12:37:54;9.70;;;5.27;;
55268;SDS011;41131;42.990;21.954;2023-03-07T12:40:28;13.63;;;5.55;;
55268;SDS011;41131;42.990;21.954;2023-03-07T12:45:32;15.98;;;5.63;;
55268;SDS011;41131;42.990;21.954;2023-03-07T12:48:06;30.73;;;6.40;;
55268;SDS011;41131;42.990;21.954;2023-03-07T12:50:39;31.85;;;7.78;;
55268;SDS011;41131;42.990;21.954;2023-03-07T13:01:03;16.85;;;9.48;;
55268;SDS011;41131;42.990;21.954;2023-03-07T13:06:27;21.90;;;10.85;;
55268;SDS011;41131;42.990;21.954;2023-03-07T13:08:56;13.52;;;8.55;;
55268;SDS011;41131;42.990;21.954;2023-03-07T13:11:23;18.08;;;10.18;;
55268;SDS011;41131;42.990;21.954;2023-03-07T13:13:54;23.60;;;15.80;;
55268;SDS011;41131;42.990;21.954;2023-03-07T13:24:47;10.95;;;7.47;;
55268;SDS011;41131;42.990;21.954;2023-03-07T13:27:17;36.25;;;24.85;;
55268;SDS011;41131;42.990;21.954;2023-03-07T13:35:12;59.67;;;31.63;;
55268;SDS011;41131;42.990;21.954;2023-03-07T13:37:49;26.35;;;15.23;;
55268;SDS011;41131;42.990;21.954;2023-03-07T13:40:58;28.27;;;19.02;;
55268;SDS011;41131;42.990;21.954;2023-03-07T13:45:53;11.40;;;7.68;;
55268;SDS011;41131;42.990;21.954;2023-03-07T13:53:19;156.10;;;114.47;;
55268;SDS011;41131;42.990;21.954;2023-03-07T13:55:47;56.55;;;44.55;;
55268;SDS011;41131;42.990;21.954;2023-03-07T14:00:53;26.75;;;14.48;;
55268;SDS011;41131;42.990;21.954;2023-03-07T14:03:24;20.98;;;17.17;;
55268;SDS011;41131;42.990;21.954;2023-03-07T14:05:51;36.20;;;11.65;;
55268;SDS011;41131;42.990;21.954;2023-03-07T14:08:18;27.48;;;14.82;;
55268;SDS011;41131;42.990;21.954;2023-03-07T14:10:46;23.92;;;15.82;;
55268;SDS011;41131;42.990;21.954;2023-03-07T14:16:06;34.42;;;24.85;;
55268;SDS011;41131;42.990;21.954;2023-03-07T14:23:52;30.02;;;19.67;;
55268;SDS011;41131;42.990;21.954;2023-03-07T14:26:28;36.90;;;24.60;;
55268;SDS011;41131;42.990;21.954;2023-03-07T14:29:00;27.92;;;16.95;;
55268;SDS011;41131;42.990;21.954;2023-03-07T14:31:30;39.40;;;21.90;;
55268;SDS011;41131;42.990;21.954;2023-03-07T14:34:14;22.02;;;17.27;;
55268;SDS011;41131;42.990;21.954;2023-03-07T14:36:40;16.13;;;8.63;;
55268;SDS011;41131;42.990;21.954;2023-03-07T14:39:09;19.17;;;13.10;;
55268;SDS011;41131;42.990;21.954;2023-03-07T14:41:40;18.90;;;12.30;;
55268;SDS011;41131;42.990;21.954;2023-03-07T14:49:35;18.92;;;15.32;;
55268;SDS011;41131;42.990;21.954;2023-03-07T14:52:04;31.25;;;16.83;;
55268;SDS011;41131;42.990;21.954;2023-03-07T14:54:31;15.70;;;11.25;;
55268;SDS011;41131;42.990;21.954;2023-03-07T14:56:58;19.88;;;13.00;;
55268;SDS011;41131;42.990;21.954;2023-03-07T14:59:25;12.30;;;8.07;;
55268;SDS011;41131;42.990;21.954;2023-03-07T15:01:51;19.27;;;15.57;;
55268;SDS011;41131;42.990;21.954;2023-03-07T15:06:57;23.60;;;14.93;;
55268;SDS011;41131;42.990;21.954;2023-03-07T15:09:24;12.20;;;8.02;;
55268;SDS011;41131;42.990;21.954;2023-03-07T15:14:21;16.23;;;8.30;;
55268;SDS011;41131;42.990;21.954;2023-03-07T15:16:51;11.60;;;8.05;;
55268;SDS011;41131;42.990;21.954;2023-03-07T15:19:20;24.30;;;10.82;;
55268;SDS011;41131;42.990;21.954;2023-03-07T15:21:57;21.27;;;11.02;;
55268;SDS011;41131;42.990;21.954;2023-03-07T15:26:51;27.85;;;20.02;;
55268;SDS011;41131;42.990;21.954;2023-03-07T15:29:22;25.27;;;16.65;;
55268;SDS011;41131;42.990;21.954;2023-03-07T15:34:30;28.75;;;14.77;;
55268;SDS011;41131;42.990;21.954;2023-03-07T15:39:53;37.80;;;22.25;;
55268;SDS011;41131;42.990;21.954;2023-03-07T15:42:19;41.15;;;24.90;;
55268;SDS011;41131;42.990;21.954;2023-03-07T15:44:51;50.47;;;34.42;;
55268;SDS011;41131;42.990;21.954;2023-03-07T15:47:17;31.25;;;19.98;;
55268;SDS011;41131;42.990;21.954;2023-03-07T15:52:20;31.23;;;18.67;;
55268;SDS011;41131;42.990;21.954;2023-03-07T15:54:48;23.75;;;14.82;;
55268;SDS011;41131;42.990;21.954;2023-03-07T15:57:19;34.33;;;18.20;;
55268;SDS011;41131;42.990;21.954;2023-03-07T15:59:55;25.35;;;12.68;;
55268;SDS011;41131;42.990;21.954;2023-03-07T16:05:02;33.22;;;21.42;;
55268;SDS011;41131;42.990;21.954;2023-03-07T16:07:28;35.92;;;22.67;;
55268;SDS011;41131;42.990;21.954;2023-03-07T16:09:57;33.20;;;21.90;;
55268;SDS011;41131;42.990;21.954;2023-03-07T16:12:23;42.45;;;26.17;;
55268;SDS011;41131;42.990;21.954;2023-03-07T16:14:50;55.10;;;30.67;;
55268;SDS011;41131;42.990;21.954;2023-03-07T16:17:32;34.03;;;18.35;;
55268;SDS011;41131;42.990;21.954;2023-03-07T16:19:59;33.70;;;19.43;;
55268;SDS011;41131;42.990;21.954;2023-03-07T16:22:28;56.63;;;35.55;;
55268;SDS011;41131;42.990;21.954;2023-03-07T16:24:55;72.22;;;45.05;;
55268;SDS011;41131;42.990;21.954;2023-03-07T16:27:21;61.72;;;41.72;;
55268;SDS011;41131;42.990;21.954;2023-03-07T16:29:49;72.93;;;47.63;;
55268;SDS011;41131;42.990;21.954;2023-03-07T16:32:20;106.68;;;60.05;;
55268;SDS011;41131;42.990;21.954;2023-03-07T16:34:47;124.78;;;74.10;;